sensor_id;sensor_type;location;lat;lon;timestamp;temperature;humidity
12039;DHT22;6080;48.818;9.526;2023-05-15T03:02:13;10.60;99.90
12039;DHT22;6080;48.818;9.526;2023-05-15T03:04:39;10.60;99.90
12039;DHT22;6080;48.818;9.526;2023-05-15T03:07:05;10.60;99.90
12039;DHT22;6080;48.818;9.526;2023-05-15T03:09:30;10.60;99.90
12039;DHT22;6080;48.818;9.526;2023-05-15T03:11:56;10.60;99.90
12039;DHT22;6080;48.818;9.526;2023-05-15T03:14:22;10.60;99.90
12039;DHT22;6080;48.818;9.526;2023-05-15T03:16:47;10.60;99.90
12039;DHT22;6080;48.818;9.526;2023-05-15T03:19:13;10.60;99.90
12039;DHT22;6080;48.818;9.526;2023-05-15T03:21:39;10.60;99.90
12039;DHT22;6080;48.818;9.526;2023-05-15T03:24:05;10.60;99.90
12039;DHT22;6080;48.818;9.526;2023-05-15T03:26:31;10.60;99.90
12039;DHT22;6080;48.818;9.526;2023-05-15T03:28:57;10.60;99.90
12039;DHT22;6080;48.818;9.526;2023-05-15T03:31:23;10.60;99.90
12039;DHT22;6080;48.818;9.526;2023-05-15T03:33:48;10.60;99.90
12039;DHT22;6080;48.818;9.526;2023-05-15T03:36:15;10.60;99.90
12039;DHT22;6080;48.818;9.526;2023-05-15T03:38:41;10.60;99.90
12039;DHT22;6080;48.818;9.526;2023-05-15T03:41:09;10.70;99.90
12039;DHT22;6080;48.818;9.526;2023-05-15T03:43:35;10.60;99.90
12039;DHT22;6080;48.818;9.526;2023-05-15T03:46:01;10.70;99.90
12039;DHT22;6080;48.818;9.526;2023-05-15T03:48:26;10.70;99.90
12039;DHT22;6080;48.818;9.526;2023-05-15T03:50:52;10.70;99.90
12039;DHT22;6080;48.818;9.526;2023-05-15T03:53:18;10.70;99.90
12039;DHT22;6080;48.818;9.526;2023-05-15T03:55:44;10.70;99.90
12039;DHT22;6080;48.818;9.526;2023-05-15T03:58:10;10.80;99.90
12039;DHT22;6080;48.818;9.526;2023-05-15T04:00:35;10.80;99.90
12039;DHT22;6080;48.818;9.526;2023-05-15T04:03:01;10.80;99.90
12039;DHT22;6080;48.818;9.526;2023-05-15T04:05:27;10.80;99.90
12039;DHT22;6080;48.818;9.526;2023-05-15T04:07:53;10.80;99.90
12039;DHT22;6080;48.818;9.526;2023-05-15T04:10:18;10.80;99.90
12039;DHT22;6080;48.818;9.526;2023-05-15T04:12:44;10.90;99.90
12039;DHT22;6080;48.818;9.526;2023-05-15T04:15:24;10.90;99.90
12039;DHT22;6080;48.818;9.526;2023-05-15T04:17:52;10.90;99.90
12039;DHT22;6080;48.818;9.526;2023-05-15T04:20:21;10.90;99.90
12039;DHT22;6080;48.818;9.526;2023-05-15T04:22:48;10.90;99.90
12039;DHT22;6080;48.818;9.526;2023-05-15T04:25:14;11.00;99.90
12039;DHT22;6080;48.818;9.526;2023-05-15T04:27:41;11.00;99.90
12039;DHT22;6080;48.818;9.526;2023-05-15T04:30:08;10.90;99.90
12039;DHT22;6080;48.818;9.526;2023-05-15T04:32:35;10.90;99.90
12039;DHT22;6080;48.818;9.526;2023-05-15T04:35:01;10.90;99.90
12039;DHT22;6080;48.818;9.526;2023-05-15T04:37:30;10.90;99.90
12039;DHT22;6080;48.818;9.526;2023-05-15T04:39:56;10.90;99.90
12039;DHT22;6080;48.818;9.526;2023-05-15T04:42:22;10.80;99.90
12039;DHT22;6080;48.818;9.526;2023-05-15T04:44:48;10.80;99.90
12039;DHT22;6080;48.818;9.526;2023-05-15T04:47:14;10.80;99.90
12039;DHT22;6080;48.818;9.526;2023-05-15T04:49:42;10.70;99.90
12039;DHT22;6080;48.818;9.526;2023-05-15T04:52:08;10.70;99.90
12039;DHT22;6080;48.818;9.526;2023-05-15T04:54:34;10.80;99.90
12039;DHT22;6080;48.818;9.526;2023-05-15T04:57:01;10.70;99.90
12039;DHT22;6080;48.818;9.526;2023-05-15T04:59:27;10.70;99.90
12039;DHT22;6080;48.818;9.526;2023-05-15T05:01:53;10.70;99.90
12039;DHT22;6080;48.818;9.526;2023-05-15T05:04:19;10.80;99.90
12039;DHT22;6080;48.818;9.526;2023-05-15T05:06:45;10.80;99.90
12039;DHT22;6080;48.818;9.526;2023-05-15T05:09:12;10.80;99.90
12039;DHT22;6080;48.818;9.526;2023-05-15T05:11:38;10.90;99.90
12039;DHT22;6080;48.818;9.526;2023-05-15T05:14:11;11.00;99.90
12039;DHT22;6080;48.818;9.526;2023-05-15T05:16:37;11.10;99.90
12039;DHT22;6080;48.818;9.526;2023-05-15T05:19:03;11.20;99.90
12039;DHT22;6080;48.818;9.526;2023-05-15T05:21:29;11.20;99.90
12039;DHT22;6080;48.818;9.526;2023-05-15T05:23:55;11.30;99.90
12039;DHT22;6080;48.818;9.526;2023-05-15T05:26:21;11.30;99.90
12039;DHT22;6080;48.818;9.526;2023-05-15T05:28:47;11.50;99.90
12039;DHT22;6080;48.818;9.526;2023-05-15T05:31:13;11.50;99.90
12039;DHT22;6080;48.818;9.526;2023-05-15T05:33:39;11.70;99.90
12039;DHT22;6080;48.818;9.526;2023-05-15T05:36:05;11.80;99.90
12039;DHT22;6080;48.818;9.526;2023-05-15T05:38:32;11.80;99.90
12039;DHT22;6080;48.818;9.526;2023-05-15T05:40:57;11.90;99.90
12039;DHT22;6080;48.818;9.526;2023-05-15T05:43:26;12.00;99.90
12039;DHT22;6080;48.818;9.526;2023-05-15T05:45:52;12.10;99.90
12039;DHT22;6080;48.818;9.526;2023-05-15T05:48:18;12.10;99.90
12039;DHT22;6080;48.818;9.526;2023-05-15T05:50:44;12.20;99.90
12039;DHT22;6080;48.818;9.526;2023-05-15T05:53:10;12.40;99.90
12039;DHT22;6080;48.818;9.526;2023-05-15T05:55:36;12.50;99.90
12039;DHT22;6080;48.818;9.526;2023-05-15T05:58:02;12.60;99.90
12039;DHT22;6080;48.818;9.526;2023-05-15T06:00:28;12.70;99.90
12039;DHT22;6080;48.818;9.526;2023-05-15T06:02:56;12.70;99.90
12039;DHT22;6080;48.818;9.526;2023-05-15T06:05:23;12.80;99.90
12039;DHT22;6080;48.818;9.526;2023-05-15T06:07:50;12.90;99.90
12039;DHT22;6080;48.818;9.526;2023-05-15T06:10:16;12.90;99.90
12039;DHT22;6080;48.818;9.526;2023-05-15T06:12:41;13.00;99.90
12039;DHT22;6080;48.818;9.526;2023-05-15T06:15:07;13.00;99.90
12039;DHT22;6080;48.818;9.526;2023-05-15T06:17:33;13.00;99.90
12039;DHT22;6080;48.818;9.526;2023-05-15T06:19:59;13.10;99.90
12039;DHT22;6080;48.818;9.526;2023-05-15T06:22:25;13.40;99.90
12039;DHT22;6080;48.818;9.526;2023-05-15T06:24:51;13.70;99.90
12039;DHT22;6080;48.818;9.526;2023-05-15T06:27:16;13.90;99.90
12039;DHT22;6080;48.818;9.526;2023-05-15T06:29:42;14.10;99.90
12039;DHT22;6080;48.818;9.526;2023-05-15T06:32:08;14.40;99.90
12039;DHT22;6080;48.818;9.526;2023-05-15T06:34:34;14.90;99.90
12039;DHT22;6080;48.818;9.526;2023-05-15T06:37:00;15.50;99.90
12039;DHT22;6080;48.818;9.526;2023-05-15T06:39:26;16.30;99.90
12039;DHT22;6080;48.818;9.526;2023-05-15T06:41:52;16.80;99.90
12039;DHT22;6080;48.818;9.526;2023-05-15T06:44:22;17.50;99.90
12039;DHT22;6080;48.818;9.526;2023-05-15T06:46:48;18.30;99.90
12039;DHT22;6080;48.818;9.526;2023-05-15T06:49:14;18.70;99.90
12039;DHT22;6080;48.818;9.526;2023-05-15T06:51:40;19.30;99.90
12039;DHT22;6080;48.818;9.526;2023-05-15T06:54:05;20.10;99.90
12039;DHT22;6080;48.818;9.526;2023-05-15T06:56:31;20.60;99.90
12039;DHT22;6080;48.818;9.526;2023-05-15T06:58:57;20.50;99.90
12039;DHT22;6080;48.818;9.526;2023-05-15T07:01:23;20.60;99.90
12039;DHT22;6080;48.818;9.526;2023-05-15T07:03:48;20.40;99.90
12039;DHT22;6080;48.818;9.526;2023-05-15T07:06:14;20.30;99.90
12039;DHT22;6080;48.818;9.526;2023-05-15T07:08:41;20.60;99.90
12039;DHT22;6080;48.818;9.526;2023-05-15T07:11:06;21.10;99.90
12039;DHT22;6080;48.818;9.526;2023-05-15T07:13:32;21.00;99.90
12039;DHT22;6080;48.818;9.526;2023-05-15T07:15:58;21.50;99.90
12039;DHT22;6080;48.818;9.526;2023-05-15T07:18:23;21.80;99.90
12039;DHT22;6080;48.818;9.526;2023-05-15T07:20:49;21.70;99.90
12039;DHT22;6080;48.818;9.526;2023-05-15T07:23:15;21.50;99.90
12039;DHT22;6080;48.818;9.526;2023-05-15T07:25:41;21.00;99.90
12039;DHT22;6080;48.818;9.526;2023-05-15T07:28:06;20.40;99.90
12039;DHT22;6080;48.818;9.526;2023-05-15T07:30:32;20.90;99.90
12039;DHT22;6080;48.818;9.526;2023-05-15T07:32:58;21.50;99.90
12039;DHT22;6080;48.818;9.526;2023-05-15T07:35:24;21.90;99.90
12039;DHT22;6080;48.818;9.526;2023-05-15T07:37:50;22.40;99.90
12039;DHT22;6080;48.818;9.526;2023-05-15T07:40:16;22.70;99.90
12039;DHT22;6080;48.818;9.526;2023-05-15T07:42:45;22.90;99.90
12039;DHT22;6080;48.818;9.526;2023-05-15T07:45:11;23.40;99.90
12039;DHT22;6080;48.818;9.526;2023-05-15T07:47:37;23.70;99.90
12039;DHT22;6080;48.818;9.526;2023-05-15T07:50:03;24.00;99.90
12039;DHT22;6080;48.818;9.526;2023-05-15T07:52:29;23.90;99.90
12039;DHT22;6080;48.818;9.526;2023-05-15T07:54:55;23.80;99.90
12039;DHT22;6080;48.818;9.526;2023-05-15T07:57:20;24.10;99.90
12039;DHT22;6080;48.818;9.526;2023-05-15T07:59:46;23.80;99.90
12039;DHT22;6080;48.818;9.526;2023-05-15T08:02:12;23.90;99.90
12039;DHT22;6080;48.818;9.526;2023-05-15T08:04:38;23.80;99.90
12039;DHT22;6080;48.818;9.526;2023-05-15T08:07:05;22.90;99.90
12039;DHT22;6080;48.818;9.526;2023-05-15T08:09:31;22.60;99.90
12039;DHT22;6080;48.818;9.526;2023-05-15T08:12:13;22.50;99.90
12039;DHT22;6080;48.818;9.526;2023-05-15T08:14:42;22.80;99.90
12039;DHT22;6080;48.818;9.526;2023-05-15T08:17:07;23.00;99.90
12039;DHT22;6080;48.818;9.526;2023-05-15T08:19:33;22.70;99.90
12039;DHT22;6080;48.818;9.526;2023-05-15T08:21:59;22.70;99.90
12039;DHT22;6080;48.818;9.526;2023-05-15T08:24:25;22.80;99.90
12039;DHT22;6080;48.818;9.526;2023-05-15T08:26:50;22.60;99.90
12039;DHT22;6080;48.818;9.526;2023-05-15T08:29:16;21.60;99.90
12039;DHT22;6080;48.818;9.526;2023-05-15T08:31:42;21.00;99.90
12039;DHT22;6080;48.818;9.526;2023-05-15T08:34:08;21.40;99.90
12039;DHT22;6080;48.818;9.526;2023-05-15T08:36:33;22.00;99.90
12039;DHT22;6080;48.818;9.526;2023-05-15T08:38:59;22.70;99.90
12039;DHT22;6080;48.818;9.526;2023-05-15T08:41:32;23.10;99.90
12039;DHT22;6080;48.818;9.526;2023-05-15T08:44:02;23.10;99.90
12039;DHT22;6080;48.818;9.526;2023-05-15T08:46:30;22.50;99.90
12039;DHT22;6080;48.818;9.526;2023-05-15T08:48:58;22.40;99.90
12039;DHT22;6080;48.818;9.526;2023-05-15T08:51:26;22.60;99.90
12039;DHT22;6080;48.818;9.526;2023-05-15T08:53:52;22.50;99.90
12039;DHT22;6080;48.818;9.526;2023-05-15T08:56:18;22.60;99.90
12039;DHT22;6080;48.818;9.526;2023-05-15T08:58:44;22.50;99.90
12039;DHT22;6080;48.818;9.526;2023-05-15T09:01:11;21.60;99.90
12039;DHT22;6080;48.818;9.526;2023-05-15T09:03:38;21.10;99.90
12039;DHT22;6080;48.818;9.526;2023-05-15T09:06:05;21.70;99.90
12039;DHT22;6080;48.818;9.526;2023-05-15T09:08:32;22.70;99.90
12039;DHT22;6080;48.818;9.526;2023-05-15T09:10:59;23.00;99.90
12039;DHT22;6080;48.818;9.526;2023-05-15T09:13:27;23.30;99.90
12039;DHT22;6080;48.818;9.526;2023-05-15T09:15:52;23.70;99.80
12039;DHT22;6080;48.818;9.526;2023-05-15T09:18:19;22.60;99.90
12039;DHT22;6080;48.818;9.526;2023-05-15T09:20:44;21.20;99.90
12039;DHT22;6080;48.818;9.526;2023-05-15T09:23:25;21.10;99.90
12039;DHT22;6080;48.818;9.526;2023-05-15T09:25:51;22.00;99.90
12039;DHT22;6080;48.818;9.526;2023-05-15T09:28:28;23.00;99.90
12039;DHT22;6080;48.818;9.526;2023-05-15T09:31:03;23.10;99.20
12039;DHT22;6080;48.818;9.526;2023-05-15T09:33:31;22.80;99.10
12039;DHT22;6080;48.818;9.526;2023-05-15T09:35:57;23.00;99.90
12039;DHT22;6080;48.818;9.526;2023-05-15T09:38:23;23.70;99.80
12039;DHT22;6080;48.818;9.526;2023-05-15T09:40:49;23.90;97.50
12039;DHT22;6080;48.818;9.526;2023-05-15T09:43:15;23.70;97.30
12039;DHT22;6080;48.818;9.526;2023-05-15T09:45:41;24.00;96.00
12039;DHT22;6080;48.818;9.526;2023-05-15T09:48:07;23.60;96.40
12039;DHT22;6080;48.818;9.526;2023-05-15T09:50:37;23.30;97.10
12039;DHT22;6080;48.818;9.526;2023-05-15T09:53:04;23.70;97.90
12039;DHT22;6080;48.818;9.526;2023-05-15T09:55:31;23.90;96.70
12039;DHT22;6080;48.818;9.526;2023-05-15T09:58:14;23.40;96.40
12039;DHT22;6080;48.818;9.526;2023-05-15T10:00:41;22.50;98.10
12039;DHT22;6080;48.818;9.526;2023-05-15T10:03:08;21.70;98.30
12039;DHT22;6080;48.818;9.526;2023-05-15T10:05:35;21.90;98.80
12039;DHT22;6080;48.818;9.526;2023-05-15T10:08:01;22.50;98.00
12039;DHT22;6080;48.818;9.526;2023-05-15T10:10:28;23.10;97.70
12039;DHT22;6080;48.818;9.526;2023-05-15T10:12:56;23.40;97.00
12039;DHT22;6080;48.818;9.526;2023-05-15T10:15:28;23.60;94.60
12039;DHT22;6080;48.818;9.526;2023-05-15T10:17:55;23.70;94.90
12039;DHT22;6080;48.818;9.526;2023-05-15T10:20:25;24.40;95.30
12039;DHT22;6080;48.818;9.526;2023-05-15T10:22:52;25.50;93.30
12039;DHT22;6080;48.818;9.526;2023-05-15T10:27:53;25.10;92.60
12039;DHT22;6080;48.818;9.526;2023-05-15T10:30:20;25.50;91.10
12039;DHT22;6080;48.818;9.526;2023-05-15T10:32:48;24.30;91.70
12039;DHT22;6080;48.818;9.526;2023-05-15T10:35:14;23.10;93.10
12039;DHT22;6080;48.818;9.526;2023-05-15T10:37:41;21.90;94.60
12039;DHT22;6080;48.818;9.526;2023-05-15T10:40:09;21.60;96.10
12039;DHT22;6080;48.818;9.526;2023-05-15T10:42:35;22.60;95.90
12039;DHT22;6080;48.818;9.526;2023-05-15T10:45:02;23.80;94.10
12039;DHT22;6080;48.818;9.526;2023-05-15T10:47:31;24.30;92.90
12039;DHT22;6080;48.818;9.526;2023-05-15T10:49:58;23.80;93.40
12039;DHT22;6080;48.818;9.526;2023-05-15T10:52:24;23.80;93.00
12039;DHT22;6080;48.818;9.526;2023-05-15T10:54:52;24.10;93.90
12039;DHT22;6080;48.818;9.526;2023-05-15T10:57:20;24.50;92.70
12039;DHT22;6080;48.818;9.526;2023-05-15T10:59:46;24.90;91.50
12039;DHT22;6080;48.818;9.526;2023-05-15T11:02:28;25.10;91.40
12039;DHT22;6080;48.818;9.526;2023-05-15T11:04:56;25.30;91.10
12039;DHT22;6080;48.818;9.526;2023-05-15T11:07:22;25.50;90.60
12039;DHT22;6080;48.818;9.526;2023-05-15T11:09:49;25.40;92.40
12039;DHT22;6080;48.818;9.526;2023-05-15T11:12:15;25.00;91.80
12039;DHT22;6080;48.818;9.526;2023-05-15T11:17:22;24.30;94.00
12039;DHT22;6080;48.818;9.526;2023-05-15T11:24:53;23.20;94.30
12039;DHT22;6080;48.818;9.526;2023-05-15T11:27:23;23.60;94.80
12039;DHT22;6080;48.818;9.526;2023-05-15T11:30:05;23.90;93.60
12039;DHT22;6080;48.818;9.526;2023-05-15T11:32:41;24.70;92.50
12039;DHT22;6080;48.818;9.526;2023-05-15T11:35:20;24.80;88.10
12039;DHT22;6080;48.818;9.526;2023-05-15T11:37:52;24.70;90.30
12039;DHT22;6080;48.818;9.526;2023-05-15T11:40:27;24.30;88.60
12039;DHT22;6080;48.818;9.526;2023-05-15T11:43:15;24.30;89.30
12039;DHT22;6080;48.818;9.526;2023-05-15T11:45:43;24.40;88.90
12039;DHT22;6080;48.818;9.526;2023-05-15T11:48:13;25.20;90.50
12039;DHT22;6080;48.818;9.526;2023-05-15T11:50:41;26.50;86.30
12039;DHT22;6080;48.818;9.526;2023-05-15T11:53:08;26.40;79.80
12039;DHT22;6080;48.818;9.526;2023-05-15T11:55:37;25.70;76.90
12039;DHT22;6080;48.818;9.526;2023-05-15T11:58:04;25.20;79.30
12039;DHT22;6080;48.818;9.526;2023-05-15T12:00:30;25.00;79.60
12039;DHT22;6080;48.818;9.526;2023-05-15T12:02:56;26.20;78.80
12039;DHT22;6080;48.818;9.526;2023-05-15T12:05:22;26.90;75.50
12039;DHT22;6080;48.818;9.526;2023-05-15T12:07:48;27.30;70.70
12039;DHT22;6080;48.818;9.526;2023-05-15T12:10:14;27.60;70.60
12039;DHT22;6080;48.818;9.526;2023-05-15T12:12:42;28.10;69.40
12039;DHT22;6080;48.818;9.526;2023-05-15T12:15:12;28.30;66.10
12039;DHT22;6080;48.818;9.526;2023-05-15T12:17:39;28.80;64.10
12039;DHT22;6080;48.818;9.526;2023-05-15T12:20:16;28.60;60.30
12039;DHT22;6080;48.818;9.526;2023-05-15T12:22:42;28.20;61.40
12039;DHT22;6080;48.818;9.526;2023-05-15T12:25:10;26.80;60.00
12039;DHT22;6080;48.818;9.526;2023-05-15T12:27:37;25.60;60.40
12039;DHT22;6080;48.818;9.526;2023-05-15T12:30:04;24.80;62.40
12039;DHT22;6080;48.818;9.526;2023-05-15T12:32:33;24.10;64.30
12039;DHT22;6080;48.818;9.526;2023-05-15T12:35:00;23.30;67.10
12039;DHT22;6080;48.818;9.526;2023-05-15T12:37:27;23.50;69.90
12039;DHT22;6080;48.818;9.526;2023-05-15T12:39:59;24.70;66.20
12039;DHT22;6080;48.818;9.526;2023-05-15T12:42:25;24.50;64.20
12039;DHT22;6080;48.818;9.526;2023-05-15T12:44:55;24.20;65.70
12039;DHT22;6080;48.818;9.526;2023-05-15T12:47:26;23.60;66.70
12039;DHT22;6080;48.818;9.526;2023-05-15T12:49:58;23.90;65.80
12039;DHT22;6080;48.818;9.526;2023-05-15T12:52:27;25.10;66.70
12039;DHT22;6080;48.818;9.526;2023-05-15T12:54:53;26.10;64.40
12039;DHT22;6080;48.818;9.526;2023-05-15T12:57:19;26.50;63.10
12039;DHT22;6080;48.818;9.526;2023-05-15T12:59:45;26.70;62.90
12039;DHT22;6080;48.818;9.526;2023-05-15T13:02:12;27.40;61.90
12039;DHT22;6080;48.818;9.526;2023-05-15T13:04:38;28.00;60.40
12039;DHT22;6080;48.818;9.526;2023-05-15T13:07:05;27.70;59.30
12039;DHT22;6080;48.818;9.526;2023-05-15T13:09:31;27.80;57.80
12039;DHT22;6080;48.818;9.526;2023-05-15T13:12:01;28.50;57.60
12039;DHT22;6080;48.818;9.526;2023-05-15T13:14:31;28.90;56.90
12039;DHT22;6080;48.818;9.526;2023-05-15T13:16:59;28.50;56.20
12039;DHT22;6080;48.818;9.526;2023-05-15T13:19:29;29.30;56.40
12039;DHT22;6080;48.818;9.526;2023-05-15T13:21:56;29.60;54.40
12039;DHT22;6080;48.818;9.526;2023-05-15T13:24:21;29.10;54.50
12039;DHT22;6080;48.818;9.526;2023-05-15T13:26:47;29.40;54.30
12039;DHT22;6080;48.818;9.526;2023-05-15T13:29:13;29.20;53.50
12039;DHT22;6080;48.818;9.526;2023-05-15T13:31:39;29.10;54.80
12039;DHT22;6080;48.818;9.526;2023-05-15T13:34:05;29.30;53.90
12039;DHT22;6080;48.818;9.526;2023-05-15T13:36:30;28.70;54.20
12039;DHT22;6080;48.818;9.526;2023-05-15T13:38:56;28.50;55.40
12039;DHT22;6080;48.818;9.526;2023-05-15T13:41:22;28.90;54.70
12039;DHT22;6080;48.818;9.526;2023-05-15T13:43:48;30.00;54.40
12039;DHT22;6080;48.818;9.526;2023-05-15T13:46:14;31.20;48.70
12039;DHT22;6080;48.818;9.526;2023-05-15T13:48:39;30.80;48.60
12039;DHT22;6080;48.818;9.526;2023-05-15T13:51:05;30.30;47.60
12039;DHT22;6080;48.818;9.526;2023-05-15T13:53:31;29.90;50.60
12039;DHT22;6080;48.818;9.526;2023-05-15T13:55:57;29.70;49.70
12039;DHT22;6080;48.818;9.526;2023-05-15T13:58:23;29.90;47.40
12039;DHT22;6080;48.818;9.526;2023-05-15T14:00:51;30.30;47.60
12039;DHT22;6080;48.818;9.526;2023-05-15T14:03:16;30.40;45.80
12039;DHT22;6080;48.818;9.526;2023-05-15T14:05:42;29.40;46.60
12039;DHT22;6080;48.818;9.526;2023-05-15T14:08:08;29.50;47.20
12039;DHT22;6080;48.818;9.526;2023-05-15T14:10:35;29.60;49.20
12039;DHT22;6080;48.818;9.526;2023-05-15T14:13:01;29.70;49.10
12039;DHT22;6080;48.818;9.526;2023-05-15T14:15:27;29.60;48.70
12039;DHT22;6080;48.818;9.526;2023-05-15T14:17:53;29.70;48.60
12039;DHT22;6080;48.818;9.526;2023-05-15T14:20:19;29.80;48.30
12039;DHT22;6080;48.818;9.526;2023-05-15T14:22:45;30.20;46.80
12039;DHT22;6080;48.818;9.526;2023-05-15T14:25:11;29.80;47.10
12039;DHT22;6080;48.818;9.526;2023-05-15T14:27:36;30.10;47.40
12039;DHT22;6080;48.818;9.526;2023-05-15T14:30:02;30.30;47.10
12039;DHT22;6080;48.818;9.526;2023-05-15T14:32:28;30.30;46.40
12039;DHT22;6080;48.818;9.526;2023-05-15T14:34:54;29.40;46.20
12039;DHT22;6080;48.818;9.526;2023-05-15T14:37:24;28.00;48.50
12039;DHT22;6080;48.818;9.526;2023-05-15T14:39:51;27.60;50.20
12039;DHT22;6080;48.818;9.526;2023-05-15T14:42:19;27.30;50.60
12039;DHT22;6080;48.818;9.526;2023-05-15T14:44:44;27.50;50.20
12039;DHT22;6080;48.818;9.526;2023-05-15T14:47:12;28.20;48.20
12039;DHT22;6080;48.818;9.526;2023-05-15T14:49:38;29.00;47.50
12039;DHT22;6080;48.818;9.526;2023-05-15T14:52:06;29.00;47.30
12039;DHT22;6080;48.818;9.526;2023-05-15T14:54:33;29.40;47.30
12039;DHT22;6080;48.818;9.526;2023-05-15T14:57:00;28.70;46.90
12039;DHT22;6080;48.818;9.526;2023-05-15T14:59:29;28.50;47.00
12039;DHT22;6080;48.818;9.526;2023-05-15T15:01:55;28.60;46.30
12039;DHT22;6080;48.818;9.526;2023-05-15T15:04:21;28.20;46.10
12039;DHT22;6080;48.818;9.526;2023-05-15T15:06:47;28.10;47.10
12039;DHT22;6080;48.818;9.526;2023-05-15T15:09:13;28.30;47.60
12039;DHT22;6080;48.818;9.526;2023-05-15T15:11:38;28.10;48.20
12039;DHT22;6080;48.818;9.526;2023-05-15T15:14:04;28.30;50.20
12039;DHT22;6080;48.818;9.526;2023-05-15T15:16:30;28.60;49.20
12039;DHT22;6080;48.818;9.526;2023-05-15T15:18:56;28.40;49.70
12039;DHT22;6080;48.818;9.526;2023-05-15T15:21:22;28.20;50.40
12039;DHT22;6080;48.818;9.526;2023-05-15T15:23:48;28.10;51.20
12039;DHT22;6080;48.818;9.526;2023-05-15T15:26:14;27.00;52.00
12039;DHT22;6080;48.818;9.526;2023-05-15T15:28:40;27.00;52.00
12039;DHT22;6080;48.818;9.526;2023-05-15T15:31:06;26.60;52.30
12039;DHT22;6080;48.818;9.526;2023-05-15T15:33:33;25.20;54.80
12039;DHT22;6080;48.818;9.526;2023-05-15T15:35:59;23.90;58.50
12039;DHT22;6080;48.818;9.526;2023-05-15T15:38:25;23.20;61.60
12039;DHT22;6080;48.818;9.526;2023-05-15T15:40:51;22.70;63.10
12039;DHT22;6080;48.818;9.526;2023-05-15T15:43:20;22.50;65.20
12039;DHT22;6080;48.818;9.526;2023-05-15T15:45:46;22.70;66.00
12039;DHT22;6080;48.818;9.526;2023-05-15T15:48:12;23.20;65.20
12039;DHT22;6080;48.818;9.526;2023-05-15T15:50:40;23.90;65.50
12039;DHT22;6080;48.818;9.526;2023-05-15T15:53:06;25.60;63.50
12039;DHT22;6080;48.818;9.526;2023-05-15T15:55:35;26.70;61.30
12039;DHT22;6080;48.818;9.526;2023-05-15T15:58:00;26.80;61.50
12039;DHT22;6080;48.818;9.526;2023-05-15T16:00:26;26.30;60.20
12039;DHT22;6080;48.818;9.526;2023-05-15T16:02:52;25.30;62.80
12039;DHT22;6080;48.818;9.526;2023-05-15T16:05:18;24.90;65.80
12039;DHT22;6080;48.818;9.526;2023-05-15T16:07:44;24.80;65.70
12039;DHT22;6080;48.818;9.526;2023-05-15T16:10:12;24.50;65.60
12039;DHT22;6080;48.818;9.526;2023-05-15T16:12:39;23.90;65.70
12039;DHT22;6080;48.818;9.526;2023-05-15T16:15:07;22.70;69.40
12039;DHT22;6080;48.818;9.526;2023-05-15T16:17:37;21.70;72.20
12039;DHT22;6080;48.818;9.526;2023-05-15T16:20:04;20.80;74.90
12039;DHT22;6080;48.818;9.526;2023-05-15T16:22:30;20.30;76.20
12039;DHT22;6080;48.818;9.526;2023-05-15T16:24:56;20.10;78.30
12039;DHT22;6080;48.818;9.526;2023-05-15T16:27:22;20.10;77.40
12039;DHT22;6080;48.818;9.526;2023-05-15T16:29:47;20.00;76.60
12039;DHT22;6080;48.818;9.526;2023-05-15T16:32:13;19.90;77.40
12039;DHT22;6080;48.818;9.526;2023-05-15T16:34:39;19.80;76.30
12039;DHT22;6080;48.818;9.526;2023-05-15T16:37:05;19.70;77.00
12039;DHT22;6080;48.818;9.526;2023-05-15T16:39:34;19.60;78.80
12039;DHT22;6080;48.818;9.526;2023-05-15T16:42:04;19.50;79.70
12039;DHT22;6080;48.818;9.526;2023-05-15T16:44:31;19.60;77.90
12039;DHT22;6080;48.818;9.526;2023-05-15T16:46:57;19.60;77.90
12039;DHT22;6080;48.818;9.526;2023-05-15T16:49:26;19.70;74.80
12039;DHT22;6080;48.818;9.526;2023-05-15T16:51:52;19.70;76.30
12039;DHT22;6080;48.818;9.526;2023-05-15T16:54:18;19.80;77.00
12039;DHT22;6080;48.818;9.526;2023-05-15T16:56:44;19.90;76.30
12039;DHT22;6080;48.818;9.526;2023-05-15T16:59:10;19.90;76.90
12039;DHT22;6080;48.818;9.526;2023-05-15T17:01:36;19.90;77.70
12039;DHT22;6080;48.818;9.526;2023-05-15T17:04:02;19.70;77.40
12039;DHT22;6080;48.818;9.526;2023-05-15T17:06:28;19.70;78.10
12039;DHT22;6080;48.818;9.526;2023-05-15T17:08:54;19.60;80.70
12039;DHT22;6080;48.818;9.526;2023-05-15T17:11:20;19.60;81.60
12039;DHT22;6080;48.818;9.526;2023-05-15T17:13:46;19.60;82.50
12039;DHT22;6080;48.818;9.526;2023-05-15T17:16:12;19.60;82.90
12039;DHT22;6080;48.818;9.526;2023-05-15T17:18:38;19.50;84.90
12039;DHT22;6080;48.818;9.526;2023-05-15T17:21:04;19.30;84.30
12039;DHT22;6080;48.818;9.526;2023-05-15T17:23:30;19.20;86.20
12039;DHT22;6080;48.818;9.526;2023-05-15T17:25:56;19.00;86.00
12039;DHT22;6080;48.818;9.526;2023-05-15T17:28:22;18.90;86.90
12039;DHT22;6080;48.818;9.526;2023-05-15T17:30:48;18.90;87.60
12039;DHT22;6080;48.818;9.526;2023-05-15T17:33:14;18.80;87.70
12039;DHT22;6080;48.818;9.526;2023-05-15T17:35:40;18.70;87.00
12039;DHT22;6080;48.818;9.526;2023-05-15T17:38:05;18.60;87.60
12039;DHT22;6080;48.818;9.526;2023-05-15T17:40:31;18.60;88.80
12039;DHT22;6080;48.818;9.526;2023-05-15T17:42:58;18.60;89.20
12039;DHT22;6080;48.818;9.526;2023-05-15T17:45:24;18.50;90.00
12039;DHT22;6080;48.818;9.526;2023-05-15T17:47:51;18.50;89.60
12039;DHT22;6080;48.818;9.526;2023-05-15T17:50:17;18.40;90.10
12039;DHT22;6080;48.818;9.526;2023-05-15T17:52:42;18.40;90.60
12039;DHT22;6080;48.818;9.526;2023-05-15T17:55:08;18.40;91.00
12039;DHT22;6080;48.818;9.526;2023-05-15T17:57:34;18.40;92.20
12039;DHT22;6080;48.818;9.526;2023-05-15T18:00:00;18.40;92.60
12039;DHT22;6080;48.818;9.526;2023-05-15T18:02:26;18.30;92.70
12039;DHT22;6080;48.818;9.526;2023-05-15T18:04:51;18.20;93.30
12039;DHT22;6080;48.818;9.526;2023-05-15T18:07:17;18.10;94.00
12039;DHT22;6080;48.818;9.526;2023-05-15T18:09:43;18.00;94.30
12039;DHT22;6080;48.818;9.526;2023-05-15T18:12:08;17.80;95.10
12039;DHT22;6080;48.818;9.526;2023-05-15T18:14:35;17.60;96.10
12039;DHT22;6080;48.818;9.526;2023-05-15T18:17:00;17.60;97.10
12039;DHT22;6080;48.818;9.526;2023-05-15T18:19:26;17.50;97.90
12039;DHT22;6080;48.818;9.526;2023-05-15T18:21:52;17.50;99.10
12039;DHT22;6080;48.818;9.526;2023-05-15T18:24:18;17.30;99.90
12039;DHT22;6080;48.818;9.526;2023-05-15T18:26:43;17.30;99.90
12039;DHT22;6080;48.818;9.526;2023-05-15T18:29:16;17.20;99.90
12039;DHT22;6080;48.818;9.526;2023-05-15T18:31:41;17.10;99.90
12039;DHT22;6080;48.818;9.526;2023-05-15T18:34:07;17.10;99.90
12039;DHT22;6080;48.818;9.526;2023-05-15T18:36:33;17.10;99.90
12039;DHT22;6080;48.818;9.526;2023-05-15T18:38:59;17.00;99.90
12039;DHT22;6080;48.818;9.526;2023-05-15T18:41:24;16.90;99.90
12039;DHT22;6080;48.818;9.526;2023-05-15T18:43:51;16.80;99.90
12039;DHT22;6080;48.818;9.526;2023-05-15T18:46:17;16.70;99.90
12039;DHT22;6080;48.818;9.526;2023-05-15T18:48:43;16.70;99.90
12039;DHT22;6080;48.818;9.526;2023-05-15T18:51:09;16.60;99.90
12039;DHT22;6080;48.818;9.526;2023-05-15T18:53:35;16.40;99.90